createdAt,value
2019-05-30T00:00:12.529Z,54.42
2019-05-30T00:02:35.986Z,45.98
2019-05-30T00:05:18.070Z,47.83
2019-05-30T00:07:51.586Z,51.83
2019-05-30T00:10:24.116Z,52.27
2019-05-30T00:12:58.570Z,58.00
2019-05-30T00:15:31.042Z,54.30
2019-05-30T00:18:05.092Z,54.05
2019-05-30T00:20:39.539Z,61.02
2019-05-30T00:23:13.347Z,67.65
2019-05-30T00:25:45.636Z,61.05
2019-05-30T00:28:18.937Z,62.38
2019-05-30T00:33:23.153Z,58.73
2019-05-30T00:38:28.401Z,71.12
2019-05-30T00:41:01.992Z,69.00
2019-05-30T00:43:35.335Z,71.07
2019-05-30T00:48:39.379Z,76.87
2019-05-30T00:51:12.860Z,69.27
2019-05-30T00:53:45.499Z,87.17
2019-05-30T00:56:18.036Z,79.32
2019-05-30T00:58:51.755Z,67.35
2019-05-30T01:01:25.063Z,68.50
2019-05-30T01:04:00.745Z,67.37
2019-05-30T01:06:33.381Z,81.87
2019-05-30T01:09:07.577Z,71.95
2019-05-30T01:11:40.793Z,77.30
2019-05-30T01:14:35.053Z,70.72
2019-05-30T01:17:07.730Z,70.08
2019-05-30T01:19:40.578Z,82.50
2019-05-30T01:22:13.329Z,78.78
2019-05-30T01:25:04.434Z,78.25
2019-05-30T01:27:32.596Z,71.90
2019-05-30T01:32:38.135Z,70.63
2019-05-30T01:35:11.299Z,61.73
2019-05-30T01:37:43.853Z,65.87
2019-05-30T01:40:17.411Z,75.32
2019-05-30T01:42:49.911Z,69.12
2019-05-30T01:45:22.557Z,69.10
2019-05-30T01:47:56.556Z,72.40
2019-05-30T01:50:30.225Z,71.57
2019-05-30T01:53:08.715Z,67.72
2019-05-30T01:55:41.576Z,75.92
2019-05-30T01:58:14.916Z,59.55
2019-05-30T02:00:48.174Z,65.70
2019-05-30T02:05:52.123Z,56.70
2019-05-30T02:08:24.698Z,37.63
2019-05-30T02:10:59.186Z,42.00
2019-05-30T02:13:31.903Z,43.73
2019-05-30T02:16:05.707Z,35.17
2019-05-30T02:18:38.324Z,31.95
2019-05-30T02:21:11.329Z,34.58
2019-05-30T02:26:15.630Z,30.35
2019-05-30T02:28:48.535Z,32.67
2019-05-30T02:31:37.823Z,29.52
2019-05-30T02:33:56.984Z,30.37
2019-05-30T02:36:30.489Z,31.77
2019-05-30T02:39:03.087Z,27.05
2019-05-30T02:44:10.264Z,28.42
2019-05-30T02:46:44.011Z,31.95
2019-05-30T02:49:16.424Z,29.45
2019-05-30T02:51:50.063Z,27.82
2019-05-30T02:54:23.165Z,27.80
2019-05-30T02:59:27.447Z,28.42
2019-05-30T03:04:33.129Z,29.33
2019-05-30T03:09:39.224Z,21.37
2019-05-30T03:12:13.429Z,21.30
2019-05-30T03:14:46.645Z,19.37
2019-05-30T03:17:20.220Z,15.63
2019-05-30T03:19:56.512Z,21.42
2019-05-30T03:22:29.532Z,18.23
2019-05-30T03:25:05.034Z,19.95
2019-05-30T03:27:37.284Z,20.97
2019-05-30T03:30:22.080Z,18.52
2019-05-30T03:33:07.573Z,22.52
2019-05-30T03:35:28.743Z,21.75
2019-05-30T03:37:56.465Z,22.90
2019-05-30T03:40:30.330Z,21.65
2019-05-30T03:43:06.035Z,24.50
2019-05-30T03:45:39.085Z,24.18
2019-05-30T03:48:16.003Z,24.32
2019-05-30T03:50:50.534Z,25.32
2019-05-30T03:53:25.699Z,30.30
2019-05-30T03:56:01.158Z,21.90
2019-05-30T03:58:42.284Z,19.02
2019-05-30T04:01:18.508Z,13.72
2019-05-30T04:03:54.425Z,12.03
2019-05-30T04:06:34.645Z,13.05
2019-05-30T04:09:09.897Z,16.50
2019-05-30T04:11:45.370Z,12.10
2019-05-30T04:14:23.987Z,15.58
2019-05-30T04:16:56.576Z,15.55
2019-05-30T04:19:30.444Z,17.90
2019-05-30T04:22:03.659Z,19.40
2019-05-30T04:24:36.534Z,19.23
2019-05-30T04:27:09.886Z,16.97
2019-05-30T04:29:43.174Z,18.67
2019-05-30T04:32:16.507Z,22.90
2019-05-30T04:34:55.983Z,21.33
2019-05-30T04:37:28.558Z,17.45
2019-05-30T04:42:33.450Z,15.38
2019-05-30T04:45:09.504Z,16.97
2019-05-30T04:47:41.754Z,15.45
2019-05-30T04:50:16.385Z,20.75
2019-05-30T04:52:49.128Z,16.87
2019-05-30T04:55:23.123Z,19.55
2019-05-30T04:57:55.626Z,19.05
2019-05-30T05:00:28.590Z,19.25
2019-05-30T05:03:01.451Z,20.92
2019-05-30T05:05:35.732Z,19.40
2019-05-30T05:08:08.720Z,24.25
2019-05-30T05:10:41.728Z,23.32
2019-05-30T05:13:16.167Z,24.82
2019-05-30T05:15:49.095Z,32.30
2019-05-30T05:18:23.426Z,28.85
2019-05-30T05:20:56.412Z,70.95
2019-05-30T05:23:29.610Z,147.98
2019-05-30T05:26:03.282Z,100.92
2019-05-30T05:28:35.927Z,43.92
2019-05-30T05:33:55.465Z,61.23
2019-05-30T05:36:15.389Z,43.58
2019-05-30T05:38:47.995Z,136.00
2019-05-30T05:41:22.188Z,161.05
2019-05-30T05:43:55.182Z,180.30
2019-05-30T05:46:28.759Z,190.43
2019-05-30T05:49:01.773Z,77.92
2019-05-30T05:51:35.479Z,50.52
2019-05-30T05:54:08.285Z,168.37
2019-05-30T05:56:47.749Z,116.25
2019-05-30T05:59:20.987Z,34.60
2019-05-30T06:01:54.330Z,107.30
2019-05-30T06:04:27.357Z,24.07
2019-05-30T06:07:00.562Z,32.75
2019-05-30T06:12:04.807Z,27.13
2019-05-30T06:14:37.350Z,47.43
2019-05-30T06:17:10.241Z,30.17
2019-05-30T06:19:46.326Z,22.42
2019-05-30T06:22:17.416Z,26.15
2019-05-30T06:24:49.863Z,29.37
2019-05-30T06:27:23.897Z,26.95
2019-05-30T06:29:56.825Z,31.25
2019-05-30T06:35:01.679Z,24.98
2019-05-30T06:37:37.262Z,43.08
2019-05-30T06:40:10.319Z,26.15
2019-05-30T06:42:43.285Z,39.78
2019-05-30T06:45:16.723Z,24.80
2019-05-30T06:47:49.771Z,49.48
2019-05-30T06:50:23.214Z,38.88
2019-05-30T06:52:56.289Z,29.45
2019-05-30T06:55:29.510Z,58.25
2019-05-30T06:58:02.746Z,27.30
2019-05-30T07:03:07.018Z,25.48
2019-05-30T07:05:39.981Z,57.50
2019-05-30T07:08:13.417Z,55.55
2019-05-30T07:13:17.018Z,27.15
2019-05-30T07:15:57.072Z,30.15
2019-05-30T07:18:36.785Z,35.48
2019-05-30T07:21:09.054Z,53.08
2019-05-30T07:26:13.663Z,28.25
2019-05-30T07:28:47.042Z,32.70
2019-05-30T07:31:25.962Z,28.07
2019-05-30T07:33:58.402Z,48.05
2019-05-30T07:36:32.263Z,29.92
2019-05-30T07:39:06.724Z,51.53
2019-05-30T07:41:39.441Z,47.25
2019-05-30T07:44:12.679Z,28.17
2019-05-30T07:49:16.921Z,27.22
2019-05-30T07:54:20.827Z,29.37
2019-05-30T07:56:53.547Z,47.78
2019-05-30T07:59:26.707Z,31.57
2019-05-30T08:01:59.229Z,34.83
2019-05-30T08:04:32.492Z,43.78
2019-05-30T08:07:06.243Z,55.25
2019-05-30T08:09:39.285Z,58.33
2019-05-30T08:12:12.200Z,37.45
2019-05-30T08:14:46.336Z,45.35
2019-05-30T08:17:19.462Z,44.63
2019-05-30T08:19:52.555Z,57.25
2019-05-30T08:22:25.556Z,48.30
2019-05-30T08:24:58.577Z,51.37
2019-05-30T08:27:32.700Z,55.33
2019-05-30T08:30:07.329Z,45.28
2019-05-30T08:32:40.014Z,47.93
2019-05-30T08:35:12.826Z,43.70
2019-05-30T08:37:45.503Z,47.60
2019-05-30T08:40:19.885Z,43.70
2019-05-30T08:42:52.653Z,39.85
2019-05-30T08:45:29.551Z,50.08
2019-05-30T08:48:00.459Z,57.15
2019-05-30T08:50:41.301Z,46.65
2019-05-30T08:53:11.665Z,43.75
2019-05-30T08:55:44.612Z,41.08
2019-05-30T09:00:50.500Z,47.13
2019-05-30T09:03:24.199Z,50.35
2019-05-30T09:06:03.726Z,48.50
2019-05-30T09:08:31.505Z,47.83
2019-05-30T09:11:06.552Z,38.98
2019-05-30T09:13:40.328Z,43.92
2019-05-30T09:16:13.199Z,42.38
2019-05-30T09:18:47.298Z,44.25
2019-05-30T09:21:20.635Z,39.80
2019-05-30T09:23:56.885Z,45.83
2019-05-30T09:26:27.431Z,39.67
2019-05-30T09:31:31.489Z,48.95
2019-05-30T09:34:04.738Z,50.03
2019-05-30T09:36:39.428Z,46.88
2019-05-30T09:39:12.626Z,42.83
2019-05-30T09:41:45.719Z,46.20
2019-05-30T09:44:18.181Z,51.18
2019-05-30T09:46:51.432Z,48.98
2019-05-30T09:49:23.880Z,52.50
2019-05-30T09:51:58.093Z,51.42
2019-05-30T09:54:30.701Z,55.85
2019-05-30T09:57:03.908Z,53.17
2019-05-30T09:59:37.301Z,54.80
2019-05-30T10:02:10.509Z,51.25
2019-05-30T10:07:17.566Z,48.55
2019-05-30T10:09:50.943Z,42.93
2019-05-30T10:12:23.835Z,46.73
2019-05-30T10:17:30.528Z,47.78
2019-05-30T10:20:03.839Z,43.70
2019-05-30T10:22:37.038Z,51.77
2019-05-30T10:25:10.755Z,43.78
2019-05-30T10:27:46.259Z,44.60
2019-05-30T10:30:21.157Z,40.85
2019-05-30T10:32:55.760Z,42.93
2019-05-30T10:35:29.999Z,47.88
2019-05-30T10:38:03.991Z,48.68
2019-05-30T10:40:36.648Z,47.20
2019-05-30T10:43:09.510Z,53.40
2019-05-30T10:45:42.114Z,56.40
2019-05-30T10:50:46.959Z,53.50
2019-05-30T10:53:20.597Z,63.25
2019-05-30T10:58:26.618Z,60.67
2019-05-30T11:01:00.332Z,68.33
2019-05-30T11:03:33.417Z,73.47
2019-05-30T11:06:14.209Z,61.48
2019-05-30T11:08:49.131Z,70.60
2019-05-30T11:11:21.977Z,66.57
2019-05-30T11:16:25.974Z,57.93
2019-05-30T11:18:58.938Z,73.35
2019-05-30T11:26:36.480Z,59.80
2019-05-30T11:31:40.353Z,66.40
2019-05-30T11:34:13.789Z,71.55
2019-05-30T11:36:46.217Z,65.03
2019-05-30T11:39:18.960Z,70.22
2019-05-30T11:41:53.205Z,67.03
2019-05-30T11:44:25.972Z,67.12
2019-05-30T11:46:59.759Z,66.17
2019-05-30T11:49:33.018Z,58.90
2019-05-30T11:54:37.334Z,57.05
2019-05-30T11:57:10.739Z,59.48
2019-05-30T11:59:43.457Z,49.05
2019-05-30T12:02:16.077Z,48.85
2019-05-30T12:04:50.702Z,50.60
2019-05-30T12:07:35.948Z,49.27
2019-05-30T12:09:58.987Z,48.17
2019-05-30T12:12:31.620Z,46.30
2019-05-30T12:15:04.588Z,47.85
2019-05-30T12:20:11.211Z,46.35
2019-05-30T12:22:43.751Z,45.90
2019-05-30T12:27:48.290Z,49.40
2019-05-30T12:30:21.726Z,51.13
2019-05-30T12:32:54.298Z,52.03
2019-05-30T12:35:27.298Z,63.08
2019-05-30T12:38:03.277Z,60.35
2019-05-30T12:40:34.079Z,65.42
2019-05-30T12:45:38.400Z,88.55
2019-05-30T12:48:29.816Z,96.50
2019-05-30T12:51:03.527Z,89.58
2019-05-30T12:53:37.735Z,104.97
2019-05-30T12:56:10.396Z,110.03
2019-05-30T12:58:42.917Z,116.00
2019-05-30T13:01:15.849Z,105.52
2019-05-30T13:03:48.243Z,106.97
2019-05-30T13:06:21.410Z,95.92
2019-05-30T13:08:55.023Z,89.92
2019-05-30T13:11:28.004Z,85.47
2019-05-30T13:14:00.764Z,80.50
2019-05-30T13:19:06.271Z,80.45
2019-05-30T13:21:39.144Z,70.35
2019-05-30T13:24:11.697Z,72.45
2019-05-30T13:26:44.560Z,70.90
2019-05-30T13:31:52.202Z,59.97
2019-05-30T13:34:24.716Z,63.35
2019-05-30T13:39:29.193Z,63.15
2019-05-30T13:42:02.027Z,69.30
2019-05-30T13:44:34.314Z,57.73
2019-05-30T13:47:08.735Z,56.63
2019-05-30T13:49:41.610Z,51.65
2019-05-30T13:54:46.013Z,49.30
2019-05-30T13:57:18.743Z,50.80
2019-05-30T13:59:51.439Z,52.88
2019-05-30T14:02:24.646Z,49.20
2019-05-30T14:07:30.315Z,44.15
2019-05-30T14:12:37.737Z,37.03
2019-05-30T14:15:13.757Z,35.15
2019-05-30T14:17:49.005Z,37.15
2019-05-30T14:20:21.986Z,38.98
2019-05-30T14:22:54.553Z,39.20
2019-05-30T14:25:27.221Z,34.75
2019-05-30T14:28:01.478Z,35.28
2019-05-30T14:30:34.439Z,35.15
2019-05-30T14:33:08.132Z,39.90
2019-05-30T14:35:40.964Z,37.48
2019-05-30T14:38:14.362Z,44.33
2019-05-30T14:40:47.019Z,38.58
2019-05-30T14:45:52.296Z,30.70
2019-05-30T14:48:25.668Z,32.17
2019-05-30T14:50:58.389Z,27.32
2019-05-30T14:56:03.307Z,25.95
2019-05-30T14:58:36.393Z,20.15
2019-05-30T15:01:10.991Z,20.25
2019-05-30T15:03:44.607Z,15.53
2019-05-30T15:06:18.106Z,15.53
2019-05-30T15:08:50.958Z,16.67
2019-05-30T15:11:23.537Z,18.42
2019-05-30T15:13:56.151Z,16.62
2019-05-30T15:16:28.540Z,18.60
2019-05-30T15:19:01.418Z,18.92
2019-05-30T15:21:34.031Z,16.65
2019-05-30T15:24:07.735Z,19.10
2019-05-30T15:26:40.700Z,16.25
2019-05-30T15:29:16.672Z,15.65
2019-05-30T15:31:49.626Z,15.95
2019-05-30T15:34:22.864Z,15.75
2019-05-30T15:36:56.073Z,16.27
2019-05-30T15:42:21.757Z,13.40
2019-05-30T15:44:54.423Z,18.73
2019-05-30T15:47:27.211Z,15.85
2019-05-30T15:50:03.088Z,18.02
2019-05-30T15:52:36.725Z,14.63
2019-05-30T15:57:43.783Z,13.18
2019-05-30T16:00:18.055Z,12.90
2019-05-30T16:02:50.514Z,17.00
2019-05-30T16:05:24.251Z,12.80
2019-05-30T16:07:56.871Z,14.73
2019-05-30T16:13:01.304Z,11.85
2019-05-30T16:18:05.638Z,13.88
2019-05-30T16:20:38.378Z,12.45
2019-05-30T16:23:10.817Z,11.38
2019-05-30T16:25:44.754Z,13.13
2019-05-30T16:28:17.870Z,16.57
2019-05-30T16:30:50.359Z,16.55
2019-05-30T16:33:23.322Z,16.55
2019-05-30T16:35:56.413Z,13.55
2019-05-30T16:38:29.139Z,17.75
2019-05-30T16:41:02.092Z,16.67
2019-05-30T16:43:34.800Z,15.45
2019-05-30T16:46:07.884Z,11.48
2019-05-30T16:48:42.048Z,17.45
2019-05-30T16:51:14.982Z,14.33
2019-05-30T16:53:48.653Z,15.23
2019-05-30T16:56:21.546Z,13.35
2019-05-30T16:58:54.178Z,13.13
2019-05-30T17:01:26.851Z,11.78
2019-05-30T17:06:31.178Z,15.23
2019-05-30T17:09:04.080Z,17.82
2019-05-30T17:11:36.535Z,15.20
2019-05-30T17:14:09.350Z,16.70
2019-05-30T17:16:42.051Z,11.25
2019-05-30T17:19:16.294Z,17.05
2019-05-30T17:21:49.115Z,13.80
2019-05-30T17:24:22.932Z,16.90
2019-05-30T17:26:55.718Z,16.90
2019-05-30T17:32:00.096Z,14.75
2019-05-30T17:34:32.963Z,16.37
2019-05-30T17:37:05.574Z,14.20
2019-05-30T17:39:38.280Z,14.28
2019-05-30T17:42:10.965Z,12.88
2019-05-30T17:47:15.544Z,16.75
2019-05-30T17:49:48.990Z,12.98
2019-05-30T17:52:21.748Z,12.47
2019-05-30T17:54:55.376Z,13.10
2019-05-30T17:57:28.150Z,12.95
2019-05-30T18:00:01.166Z,12.55
2019-05-30T18:02:34.089Z,14.90
2019-05-30T18:05:08.479Z,16.62
2019-05-30T18:07:41.148Z,13.30
2019-05-30T18:10:15.650Z,12.80
2019-05-30T18:12:48.292Z,15.35
2019-05-30T18:15:25.027Z,10.48
2019-05-30T18:17:56.008Z,13.48
2019-05-30T18:20:29.397Z,11.28
2019-05-30T18:23:01.852Z,15.08
2019-05-30T18:25:34.698Z,14.83
2019-05-30T18:28:07.393Z,15.13
2019-05-30T18:30:42.591Z,22.15
2019-05-30T18:33:15.582Z,29.63
2019-05-30T18:38:19.357Z,25.68
2019-05-30T18:40:52.290Z,26.45
2019-05-30T18:43:24.835Z,24.92
2019-05-30T18:48:29.570Z,24.05
2019-05-30T18:51:02.617Z,22.58
2019-05-30T18:53:36.737Z,20.82
2019-05-30T18:56:09.568Z,24.05
2019-05-30T18:58:41.865Z,21.65
2019-05-30T19:01:14.637Z,19.85
2019-05-30T19:03:47.181Z,22.05
2019-05-30T19:06:19.976Z,18.77
2019-05-30T19:08:52.562Z,17.50
2019-05-30T19:11:29.591Z,16.85
2019-05-30T19:13:59.432Z,16.82
2019-05-30T19:16:32.913Z,16.45
2019-05-30T19:19:05.428Z,20.50
2019-05-30T19:21:59.090Z,16.07
2019-05-30T19:24:32.134Z,22.10
2019-05-30T19:27:04.976Z,22.42
2019-05-30T19:29:37.876Z,23.47
2019-05-30T19:32:10.335Z,21.10
2019-05-30T19:34:43.453Z,19.55
2019-05-30T19:39:59.787Z,18.87
2019-05-30T19:42:33.437Z,20.45
2019-05-30T19:45:07.991Z,18.75
2019-05-30T19:47:41.041Z,22.02
2019-05-30T19:50:15.331Z,11.97
2019-05-30T19:52:48.866Z,10.03
2019-05-30T19:55:22.046Z,9.95
2019-05-30T20:00:26.433Z,15.32
2019-05-30T20:02:58.887Z,8.50
2019-05-30T20:05:32.477Z,5.80
2019-05-30T20:08:04.962Z,7.58
2019-05-30T20:10:37.448Z,7.12
2019-05-30T20:13:10.476Z,7.08
2019-05-30T20:15:43.017Z,3.40
2019-05-30T20:18:15.581Z,4.55
2019-05-30T20:23:20.827Z,4.40
2019-05-30T20:25:53.614Z,2.35
2019-05-30T20:30:58.360Z,4.53
2019-05-30T20:33:30.797Z,2.08
2019-05-30T20:36:04.709Z,2.87
2019-05-30T20:38:38.589Z,3.40
2019-05-30T20:41:11.562Z,5.67
2019-05-30T20:43:47.071Z,1.75
2019-05-30T20:46:23.477Z,5.37
2019-05-30T20:48:54.819Z,4.33
2019-05-30T20:51:27.295Z,3.92
2019-05-30T20:54:00.018Z,5.45
2019-05-30T20:56:32.278Z,3.47
2019-05-30T20:59:05.318Z,2.83
2019-05-30T21:01:37.757Z,4.35
2019-05-30T21:04:10.518Z,5.50
2019-05-30T21:06:44.120Z,3.80
2019-05-30T21:09:28.337Z,2.62
2019-05-30T21:11:52.167Z,2.75
2019-05-30T21:14:27.582Z,3.20
2019-05-30T21:17:00.231Z,5.75
2019-05-30T21:19:33.159Z,5.90
2019-05-30T21:22:05.538Z,3.85
2019-05-30T21:24:38.624Z,3.90
2019-05-30T21:27:12.042Z,3.58
2019-05-30T21:29:45.780Z,4.53
2019-05-30T21:32:18.438Z,5.30
2019-05-30T21:34:51.696Z,3.70
2019-05-30T21:37:45.814Z,6.80
2019-05-30T21:40:18.631Z,3.00
2019-05-30T21:43:04.670Z,5.10
2019-05-30T21:45:25.459Z,2.52
2019-05-30T21:47:57.911Z,5.00
2019-05-30T21:50:30.894Z,2.12
2019-05-30T21:53:03.414Z,3.92
2019-05-30T21:55:36.260Z,4.28
2019-05-30T21:58:08.860Z,5.40
2019-05-30T22:03:24.709Z,3.80
2019-05-30T22:05:57.924Z,4.20
2019-05-30T22:08:30.329Z,6.35
2019-05-30T22:11:03.618Z,5.45
2019-05-30T22:13:36.304Z,5.90
2019-05-30T22:16:09.613Z,5.08
2019-05-30T22:21:14.722Z,7.92
2019-05-30T22:23:48.112Z,8.95
2019-05-30T22:26:21.102Z,7.92
2019-05-30T22:28:53.607Z,6.12
2019-05-30T22:31:26.693Z,7.37
2019-05-30T22:33:59.497Z,10.63
2019-05-30T22:36:32.245Z,7.95
2019-05-30T22:39:08.682Z,10.18
2019-05-30T22:41:39.925Z,13.08
2019-05-30T22:46:44.171Z,14.80
2019-05-30T22:49:16.901Z,14.13
2019-05-30T22:51:51.056Z,20.43
2019-05-30T22:54:23.645Z,18.85
2019-05-30T22:56:56.660Z,16.65
2019-05-30T23:02:02.240Z,14.23
2019-05-30T23:07:06.550Z,18.10
2019-05-30T23:09:39.155Z,15.00
2019-05-30T23:14:43.325Z,12.70
2019-05-30T23:17:16.288Z,14.45
2019-05-30T23:19:48.972Z,13.38
2019-05-30T23:22:21.657Z,14.35
2019-05-30T23:24:55.444Z,11.00
2019-05-30T23:27:28.849Z,11.53
2019-05-30T23:32:32.789Z,18.30
2019-05-30T23:35:05.066Z,21.42
2019-05-30T23:37:38.759Z,25.95
2019-05-30T23:40:11.996Z,26.15
2019-05-30T23:42:44.718Z,33.05
2019-05-30T23:45:17.318Z,41.60
2019-05-30T23:50:21.960Z,41.48
2019-05-30T23:52:56.192Z,44.73
2019-05-30T23:55:28.552Z,46.40
2019-05-30T23:58:01.764Z,52.43
